Portada
METAR-TAF:

METAR-TAF

Aeroports :

Washington Municipal Airport

Washington, Iowa, Estats Units d'Amèrica

latitud: 41-17N, longitud: 091-40W, altitud: 230 m

Observació

L'informe es va fer fa 29 minuts, a les 19:35 UTC
Vent 15 kt del Sud amb ràfegues de 21 kt
Temperatura 34°C
Humitat 36%
Pressió 1010 hPa
Visibilitat: 16.1 km
Cel clar

METAR: KAWG 171935Z AUTO 17015G21KT 10SM CLR 34/17 A2982 RMK AO2

Hora: 15:04 (20:04 UTC)


TAF: manca

Observacions i pronòstics meteorològics de més de 4000 aeroports (METAR i TAF).

Les estacions disponibles són els punts grocs i vermells al mapa.

Posi el ratolí al punt desitjat per veure el nom de l'estació.

Feu clic per veure les observacions i els pronòstics meteorològics.

Per canviar el mapa: feu clic els botons verds amb una creu de color negre per apropar; al botó verd amb un guió per allunyar la imatge; o en les fletxes verdes per a mapes adjacents.


METAR-TAF: